createdAt,value
2017-12-15T00:01:03.077Z,5.00
2017-12-15T00:03:31.386Z,5.47
2017-12-15T00:05:58.948Z,4.50
2017-12-15T00:08:26.494Z,4.67
2017-12-15T00:10:54.064Z,5.20
2017-12-15T00:13:21.605Z,5.03
2017-12-15T00:15:49.171Z,4.70
2017-12-15T00:18:16.700Z,4.50
2017-12-15T00:20:45.025Z,4.50
2017-12-15T00:23:12.560Z,4.57
2017-12-15T00:25:40.869Z,4.43
2017-12-15T00:28:08.449Z,4.30
2017-12-15T00:30:36.016Z,4.50
2017-12-15T00:33:03.580Z,4.80
2017-12-15T00:35:31.121Z,4.07
2017-12-15T00:37:58.667Z,4.57
2017-12-15T00:40:26.193Z,4.20
2017-12-15T00:42:53.753Z,4.00
2017-12-15T00:45:22.061Z,4.10
2017-12-15T00:47:49.620Z,5.03
2017-12-15T00:50:17.162Z,3.43
2017-12-15T00:52:44.723Z,4.30
2017-12-15T00:55:12.262Z,4.80
2017-12-15T00:57:39.820Z,3.63
2017-12-15T01:00:07.357Z,4.77
2017-12-15T01:02:35.712Z,3.20
2017-12-15T01:05:03.242Z,3.20
2017-12-15T01:07:30.797Z,4.10
2017-12-15T01:09:59.109Z,3.40
2017-12-15T01:12:26.685Z,3.30
2017-12-15T01:14:54.225Z,3.40
2017-12-15T01:17:22.538Z,3.30
2017-12-15T01:19:50.104Z,3.23
2017-12-15T01:22:17.631Z,4.13
2017-12-15T01:24:45.186Z,4.00
2017-12-15T01:27:12.717Z,3.60
2017-12-15T01:29:40.269Z,3.30
2017-12-15T01:32:08.573Z,2.47
2017-12-15T01:34:36.901Z,2.70
2017-12-15T01:37:04.446Z,2.80
2017-12-15T01:39:31.995Z,3.00
2017-12-15T01:42:00.305Z,3.50
2017-12-15T01:44:27.859Z,3.43
2017-12-15T01:46:55.394Z,3.43
2017-12-15T01:49:22.945Z,3.00
2017-12-15T01:51:50.482Z,2.67
2017-12-15T01:54:18.032Z,3.13
2017-12-15T01:56:46.357Z,2.47
2017-12-15T01:59:13.937Z,2.37
2017-12-15T02:01:41.469Z,2.93
2017-12-15T02:04:09.774Z,3.03
2017-12-15T02:06:37.319Z,3.20
2017-12-15T02:09:04.845Z,2.70
2017-12-15T02:11:32.395Z,2.60
2017-12-15T02:13:59.928Z,3.27
2017-12-15T02:16:27.490Z,2.67
2017-12-15T02:18:55.029Z,2.77
2017-12-15T02:21:22.586Z,3.10
2017-12-15T02:23:50.127Z,3.40
2017-12-15T02:26:18.452Z,2.50
2017-12-15T02:28:45.998Z,3.30
2017-12-15T02:31:14.346Z,3.33
2017-12-15T02:33:41.874Z,3.07
2017-12-15T02:36:09.408Z,2.83
2017-12-15T02:38:36.967Z,2.87
2017-12-15T02:41:04.513Z,2.60
2017-12-15T02:43:32.080Z,3.03
2017-12-15T02:45:59.620Z,3.50
2017-12-15T02:48:27.180Z,3.00
2017-12-15T02:50:55.489Z,2.90
2017-12-15T02:53:23.048Z,3.40
2017-12-15T02:55:50.589Z,3.27
2017-12-15T02:58:18.149Z,3.20
2017-12-15T03:00:45.686Z,3.43
2017-12-15T03:03:14.159Z,3.10
2017-12-15T03:05:41.705Z,4.50
2017-12-15T03:08:09.265Z,3.90
2017-12-15T03:10:36.802Z,3.03
2017-12-15T03:13:04.389Z,2.80
2017-12-15T03:15:31.925Z,3.07
2017-12-15T03:17:59.479Z,2.77
2017-12-15T03:20:27.805Z,3.33
2017-12-15T03:22:55.345Z,3.03
2017-12-15T03:25:22.916Z,2.80
2017-12-15T03:27:51.244Z,2.80
2017-12-15T03:30:18.801Z,3.20
2017-12-15T03:32:46.338Z,3.27
2017-12-15T03:35:14.674Z,3.30
2017-12-15T03:37:42.209Z,3.50
2017-12-15T03:40:10.535Z,3.60
2017-12-15T03:42:38.085Z,4.10
2017-12-15T03:45:05.645Z,3.90
2017-12-15T03:47:33.953Z,3.67
2017-12-15T03:50:01.526Z,3.97
2017-12-15T03:52:29.072Z,4.07
2017-12-15T03:54:56.637Z,4.20
2017-12-15T03:57:24.942Z,4.57
2017-12-15T03:59:52.510Z,4.20
2017-12-15T04:02:20.053Z,5.27
2017-12-15T04:04:47.584Z,5.40
2017-12-15T04:07:15.150Z,5.10
2017-12-15T04:09:42.694Z,5.23
2017-12-15T04:12:11.022Z,5.77
2017-12-15T04:14:38.560Z,5.33
2017-12-15T04:17:06.122Z,6.40
2017-12-15T04:19:34.429Z,6.40
2017-12-15T04:22:01.993Z,7.00
2017-12-15T04:24:29.536Z,6.67
2017-12-15T04:26:57.100Z,6.60
2017-12-15T04:29:24.897Z,6.37
2017-12-15T04:31:53.247Z,5.97
2017-12-15T04:34:20.790Z,6.60
2017-12-15T04:36:48.349Z,7.70
2017-12-15T04:39:15.912Z,7.03
2017-12-15T04:41:44.243Z,7.50
2017-12-15T04:44:11.787Z,7.77
2017-12-15T04:46:39.355Z,7.60
2017-12-15T04:49:06.896Z,8.00
2017-12-15T04:51:34.457Z,7.37
2017-12-15T04:54:02.014Z,7.40
2017-12-15T04:56:29.556Z,7.30
2017-12-15T04:58:57.881Z,6.90
2017-12-15T05:01:25.421Z,7.23
2017-12-15T05:03:52.985Z,7.83
2017-12-15T05:06:20.521Z,8.33
2017-12-15T05:08:48.845Z,9.23
2017-12-15T05:11:16.401Z,9.80
2017-12-15T05:13:43.965Z,8.90
2017-12-15T05:16:12.270Z,8.70
2017-12-15T05:18:39.831Z,8.67
2017-12-15T05:21:07.372Z,10.20
2017-12-15T05:23:34.937Z,9.80
2017-12-15T05:26:02.489Z,8.80
2017-12-15T05:28:30.053Z,9.20
2017-12-15T05:30:57.595Z,9.40
2017-12-15T05:33:25.140Z,9.03
2017-12-15T05:35:53.464Z,8.23
2017-12-15T05:38:21.012Z,8.73
2017-12-15T05:40:49.332Z,8.60
2017-12-15T05:43:16.889Z,8.17
2017-12-15T05:45:44.464Z,10.23
2017-12-15T05:48:12.010Z,9.90
2017-12-15T05:50:40.342Z,7.40
2017-12-15T05:53:07.897Z,8.63
2017-12-15T05:55:35.467Z,8.73
2017-12-15T05:58:03.022Z,8.30
2017-12-15T06:00:31.353Z,8.67
2017-12-15T06:02:58.893Z,8.43
2017-12-15T06:05:26.466Z,9.07
2017-12-15T06:07:54.014Z,9.00
2017-12-15T06:10:22.333Z,9.53
2017-12-15T06:12:49.903Z,9.30
2017-12-15T06:15:17.449Z,9.53
2017-12-15T06:17:45.790Z,10.27
2017-12-15T06:20:13.341Z,18.53
2017-12-15T06:22:41.010Z,16.93
2017-12-15T06:25:08.558Z,17.90
2017-12-15T06:27:36.900Z,11.90
2017-12-15T06:30:04.477Z,12.37
2017-12-15T06:32:32.041Z,11.47
2017-12-15T06:34:59.584Z,10.53
2017-12-15T06:37:27.153Z,10.40
2017-12-15T06:39:54.702Z,9.97
2017-12-15T06:42:23.029Z,8.77
2017-12-15T06:44:50.580Z,9.97
2017-12-15T06:47:18.150Z,8.73
2017-12-15T06:49:45.701Z,10.13
2017-12-15T06:52:14.045Z,10.67
2017-12-15T06:54:41.588Z,9.77
2017-12-15T06:57:09.208Z,11.63
2017-12-15T06:59:36.762Z,12.27
2017-12-15T07:02:04.333Z,14.40
2017-12-15T07:04:31.886Z,12.27
2017-12-15T07:06:59.444Z,13.63
2017-12-15T07:09:27.676Z,13.20
2017-12-15T07:11:55.712Z,15.77
2017-12-15T07:14:23.754Z,13.20
2017-12-15T07:16:51.880Z,10.90
2017-12-15T07:19:20.288Z,9.80
2017-12-15T07:21:50.043Z,10.40
2017-12-15T07:24:18.968Z,10.13
2017-12-15T07:26:47.753Z,9.37
2017-12-15T07:29:15.830Z,9.77
2017-12-15T07:31:43.516Z,8.67
2017-12-15T07:34:12.526Z,10.20
2017-12-15T07:36:41.325Z,8.70
2017-12-15T07:39:09.978Z,10.03
2017-12-15T07:41:39.055Z,9.03
2017-12-15T07:44:07.214Z,8.60
2017-12-15T07:46:35.513Z,11.53
2017-12-15T07:49:03.489Z,11.23
2017-12-15T07:51:31.467Z,10.80
2017-12-15T07:53:59.433Z,15.40
2017-12-15T07:56:27.509Z,19.77
2017-12-15T07:58:55.391Z,18.47
2017-12-15T08:01:24.029Z,29.47
2017-12-15T08:03:52.171Z,21.10
2017-12-15T08:06:20.212Z,19.60
2017-12-15T08:08:47.948Z,17.87
2017-12-15T08:11:16.918Z,21.27
2017-12-15T08:13:45.651Z,21.30
2017-12-15T08:16:14.571Z,19.70
2017-12-15T08:18:42.556Z,16.73
2017-12-15T08:21:10.468Z,14.67
2017-12-15T08:23:38.069Z,14.30
2017-12-15T08:26:05.642Z,14.50
2017-12-15T08:28:33.213Z,14.93
2017-12-15T08:31:00.833Z,15.67
2017-12-15T08:33:29.156Z,15.00
2017-12-15T08:35:56.709Z,14.50
2017-12-15T08:38:24.306Z,18.83
2017-12-15T08:40:51.874Z,35.70
2017-12-15T08:43:19.442Z,33.20
2017-12-15T08:45:46.993Z,25.53
2017-12-15T08:48:15.330Z,20.57
2017-12-15T08:50:43.688Z,13.80
2017-12-15T08:53:11.261Z,12.20
2017-12-15T08:55:38.830Z,11.37
2017-12-15T08:58:07.329Z,11.67
2017-12-15T09:00:34.894Z,11.23
2017-12-15T09:03:02.461Z,12.23
2017-12-15T09:05:30.005Z,11.47
2017-12-15T09:07:57.576Z,13.03
2017-12-15T09:10:25.130Z,11.17
2017-12-15T09:12:52.696Z,11.87
2017-12-15T09:15:20.245Z,10.30
2017-12-15T09:17:47.831Z,10.50
2017-12-15T09:20:15.381Z,10.57
2017-12-15T09:22:42.956Z,11.63
2017-12-15T09:25:10.505Z,10.47
2017-12-15T09:27:38.048Z,9.90
2017-12-15T09:30:06.394Z,10.80
2017-12-15T09:32:33.951Z,9.37
2017-12-15T09:35:01.534Z,10.47
2017-12-15T09:37:29.085Z,11.17
2017-12-15T09:39:56.669Z,11.70
2017-12-15T09:42:24.211Z,11.07
2017-12-15T09:44:52.542Z,11.13
2017-12-15T09:47:20.081Z,10.13
2017-12-15T09:49:48.416Z,10.80
2017-12-15T09:52:15.957Z,9.93
2017-12-15T09:54:43.521Z,11.60
2017-12-15T09:57:11.065Z,10.90
2017-12-15T09:59:38.648Z,10.27
2017-12-15T10:02:06.978Z,8.90
2017-12-15T10:04:34.531Z,9.23
2017-12-15T10:07:02.103Z,9.23
2017-12-15T10:09:29.647Z,9.30
2017-12-15T10:11:57.974Z,7.83
2017-12-15T10:14:25.509Z,8.10
2017-12-15T10:16:53.071Z,8.13
2017-12-15T10:19:20.612Z,7.23
2017-12-15T10:21:48.186Z,7.40
2017-12-15T10:24:15.743Z,8.13
2017-12-15T10:26:43.300Z,8.37
2017-12-15T10:29:10.842Z,9.50
2017-12-15T10:31:38.401Z,8.70
2017-12-15T10:34:06.744Z,9.73
2017-12-15T10:36:34.309Z,8.57
2017-12-15T10:39:01.908Z,8.20
2017-12-15T10:41:29.710Z,8.10
2017-12-15T10:43:57.264Z,8.03
2017-12-15T10:46:24.809Z,7.10
2017-12-15T10:48:52.380Z,9.07
2017-12-15T10:51:19.928Z,8.67
2017-12-15T11:04:00.314Z,8.57
2017-12-15T11:06:27.973Z,9.03
2017-12-15T11:08:55.553Z,9.17
2017-12-15T11:11:23.101Z,9.27
2017-12-15T11:13:51.433Z,9.07
2017-12-15T11:16:18.989Z,9.07
2017-12-15T11:18:47.326Z,10.90
2017-12-15T11:21:15.636Z,9.40
2017-12-15T11:23:43.204Z,10.00
2017-12-15T11:26:10.802Z,9.70
2017-12-15T11:28:39.078Z,9.10
2017-12-15T11:31:06.781Z,10.77
2017-12-15T11:33:34.371Z,10.30
2017-12-15T11:36:01.957Z,9.50
2017-12-15T11:38:29.508Z,10.57
2017-12-15T11:40:57.089Z,10.87
2017-12-15T11:43:25.410Z,9.93
2017-12-15T11:45:52.981Z,10.47
2017-12-15T11:48:20.534Z,12.10
2017-12-15T11:50:48.096Z,10.33
2017-12-15T11:53:15.788Z,10.97
2017-12-15T11:55:43.353Z,10.00
2017-12-15T11:58:10.897Z,10.07
2017-12-15T12:00:39.225Z,10.70
2017-12-15T12:03:06.769Z,11.33
2017-12-15T12:05:35.097Z,12.77
2017-12-15T12:08:02.655Z,12.00
2017-12-15T12:10:30.997Z,11.23
2017-12-15T12:12:58.536Z,10.67
2017-12-15T12:15:26.097Z,11.37
2017-12-15T12:17:53.641Z,11.87
2017-12-15T12:20:21.204Z,11.60
2017-12-15T12:22:49.539Z,11.80
2017-12-15T12:25:17.091Z,10.67
2017-12-15T12:27:45.428Z,11.80
2017-12-15T12:30:12.982Z,11.03
2017-12-15T12:32:40.553Z,11.90
2017-12-15T12:35:09.121Z,12.33
2017-12-15T12:37:36.701Z,12.03
2017-12-15T12:40:04.277Z,12.87
2017-12-15T12:42:31.841Z,13.57
2017-12-15T12:44:59.386Z,12.20
2017-12-15T12:47:27.007Z,12.63
2017-12-15T12:49:54.560Z,11.23
2017-12-15T12:52:22.888Z,12.23
2017-12-15T12:54:50.437Z,12.57
2017-12-15T12:57:18.006Z,12.53
2017-12-15T12:59:45.639Z,12.73
2017-12-15T13:02:13.225Z,11.67
2017-12-15T13:04:40.772Z,12.60
2017-12-15T13:07:09.061Z,12.27
2017-12-15T13:09:36.617Z,13.47
2017-12-15T13:12:04.187Z,14.40
2017-12-15T13:14:31.753Z,13.40
2017-12-15T13:16:59.333Z,11.23
2017-12-15T13:19:26.920Z,11.60
2017-12-15T13:21:55.229Z,12.17
2017-12-15T13:24:22.793Z,12.10
2017-12-15T13:26:51.105Z,12.97
2017-12-15T13:29:19.432Z,12.60
2017-12-15T13:31:46.973Z,13.27
2017-12-15T13:34:14.536Z,13.87
2017-12-15T13:36:42.094Z,12.40
2017-12-15T13:39:09.660Z,12.97
2017-12-15T13:41:37.225Z,14.60
2017-12-15T13:44:05.566Z,13.60
2017-12-15T13:46:33.115Z,15.30
2017-12-15T13:49:01.424Z,13.73
2017-12-15T13:51:28.997Z,14.17
2017-12-15T13:53:57.309Z,14.60
2017-12-15T13:56:24.885Z,15.13
2017-12-15T13:58:53.245Z,14.93
2017-12-15T14:01:20.826Z,16.60
2017-12-15T14:03:48.427Z,16.17
2017-12-15T14:06:16.009Z,18.00
2017-12-15T14:08:43.568Z,17.90
2017-12-15T14:11:11.133Z,18.50
2017-12-15T14:13:39.577Z,17.27
2017-12-15T14:16:07.136Z,16.97
2017-12-15T14:18:34.685Z,18.20
2017-12-15T14:21:03.039Z,17.80
2017-12-15T14:23:30.584Z,18.20
2017-12-15T14:25:58.125Z,19.60
2017-12-15T14:28:25.726Z,19.17
2017-12-15T14:30:53.289Z,18.80
2017-12-15T14:33:20.853Z,19.67
2017-12-15T14:35:48.405Z,18.93
2017-12-15T14:38:15.970Z,20.10
2017-12-15T14:40:44.433Z,18.77
2017-12-15T14:43:12.243Z,19.20
2017-12-15T14:45:40.852Z,20.47
2017-12-15T14:48:08.762Z,22.13
2017-12-15T14:50:37.380Z,21.07
2017-12-15T14:53:06.581Z,20.00
2017-12-15T14:55:34.470Z,21.47
2017-12-15T14:58:02.980Z,21.23
2017-12-15T15:00:30.928Z,21.83
2017-12-15T15:02:58.791Z,21.93
2017-12-15T15:05:26.524Z,22.03
2017-12-15T15:07:54.336Z,23.70
2017-12-15T15:10:22.109Z,23.03
2017-12-15T15:12:50.664Z,20.93
2017-12-15T15:15:18.270Z,21.10
2017-12-15T15:17:45.822Z,21.60
2017-12-15T15:20:13.400Z,19.97
2017-12-15T15:22:40.941Z,20.57
2017-12-15T15:25:08.505Z,21.37
2017-12-15T15:27:36.061Z,21.20
2017-12-15T15:30:04.401Z,23.97
2017-12-15T15:32:31.948Z,23.07
2017-12-15T15:34:59.541Z,24.60
2017-12-15T15:37:27.857Z,21.40
2017-12-15T15:39:55.433Z,19.93
2017-12-15T15:42:23.739Z,18.23
2017-12-15T15:44:51.314Z,20.70
2017-12-15T15:47:19.632Z,19.83
2017-12-15T15:49:47.197Z,21.60
2017-12-15T15:52:15.508Z,21.80
2017-12-15T15:54:43.815Z,17.77
2017-12-15T15:57:11.382Z,21.63
2017-12-15T15:59:38.924Z,20.27
2017-12-15T16:02:06.486Z,19.93
2017-12-15T16:04:34.028Z,18.97
2017-12-15T16:07:02.357Z,19.83
2017-12-15T16:09:29.903Z,18.47
2017-12-15T16:11:57.469Z,19.57
2017-12-15T16:14:25.018Z,19.13
2017-12-15T16:16:52.585Z,20.20
2017-12-15T16:19:20.133Z,19.30
2017-12-15T16:21:47.728Z,19.60
2017-12-15T16:24:16.049Z,18.47
2017-12-15T16:26:44.381Z,18.60
2017-12-15T16:29:11.957Z,18.17
2017-12-15T16:31:39.530Z,18.10
2017-12-15T16:34:07.096Z,20.63
2017-12-15T16:36:35.536Z,19.30
2017-12-15T16:39:03.848Z,19.13
2017-12-15T16:41:31.396Z,19.57
2017-12-15T16:43:58.973Z,18.90
2017-12-15T16:46:27.297Z,20.83
2017-12-15T16:48:54.871Z,19.10
2017-12-15T16:51:22.452Z,21.70
2017-12-15T16:53:50.015Z,19.60
2017-12-15T16:56:17.552Z,21.87
2017-12-15T16:58:45.119Z,19.60
2017-12-15T17:01:12.677Z,20.80
2017-12-15T17:03:41.001Z,18.40
2017-12-15T17:06:08.593Z,20.40
2017-12-15T17:08:36.157Z,21.07
2017-12-15T17:11:03.705Z,20.67
2017-12-15T17:13:31.277Z,20.70
2017-12-15T17:15:58.823Z,21.27
2017-12-15T17:18:26.390Z,21.70
2017-12-15T17:20:54.698Z,22.20
2017-12-15T17:23:22.279Z,21.87
2017-12-15T17:25:49.837Z,41.27
2017-12-15T17:28:17.416Z,27.30
2017-12-15T17:30:44.961Z,20.37
2017-12-15T17:33:13.273Z,21.23
2017-12-15T17:35:40.842Z,21.53
2017-12-15T17:38:08.385Z,22.03
2017-12-15T17:40:36.713Z,22.40
2017-12-15T17:43:04.257Z,23.10
2017-12-15T17:45:31.825Z,20.33
2017-12-15T17:47:59.364Z,21.60
2017-12-15T17:50:26.930Z,20.73
2017-12-15T17:52:55.240Z,22.13
2017-12-15T17:55:22.808Z,20.50
2017-12-15T17:57:51.116Z,22.47
2017-12-15T18:00:19.530Z,22.30
2017-12-15T18:02:47.864Z,20.47
2017-12-15T18:05:15.520Z,22.40
2017-12-15T18:07:43.156Z,20.53
2017-12-15T18:10:10.744Z,22.43
2017-12-15T18:12:38.293Z,20.07
2017-12-15T18:15:05.872Z,24.40
2017-12-15T18:17:33.413Z,21.00
2017-12-15T18:20:00.985Z,21.00
2017-12-15T18:22:28.539Z,22.10
2017-12-15T18:24:56.094Z,21.03
2017-12-15T18:27:23.658Z,21.43
2017-12-15T18:29:51.969Z,20.53
2017-12-15T18:32:20.301Z,20.10
2017-12-15T18:34:47.865Z,20.77
2017-12-15T18:37:15.430Z,20.17
2017-12-15T18:39:43.740Z,19.30
2017-12-15T18:42:12.072Z,22.03
2017-12-15T18:44:39.619Z,22.17
2017-12-15T18:47:07.941Z,21.90
2017-12-15T18:49:35.477Z,23.70
2017-12-15T18:52:03.045Z,22.73
2017-12-15T18:54:30.616Z,21.40
2017-12-15T18:56:58.206Z,20.03
2017-12-15T18:59:25.755Z,20.93
2017-12-15T19:01:54.160Z,21.10
2017-12-15T19:04:21.708Z,22.97
2017-12-15T19:06:49.254Z,20.33
2017-12-15T19:09:16.823Z,23.30
2017-12-15T19:11:44.389Z,22.23
2017-12-15T19:14:12.717Z,23.83
2017-12-15T19:16:40.271Z,25.90
2017-12-15T19:19:07.881Z,25.57
2017-12-15T19:21:35.470Z,26.33
2017-12-15T19:24:03.053Z,22.57
2017-12-15T19:26:30.598Z,24.70
2017-12-15T19:28:58.924Z,24.23
2017-12-15T19:31:26.473Z,26.43
2017-12-15T19:33:54.043Z,25.37
2017-12-15T19:36:21.594Z,27.73
2017-12-15T19:38:49.163Z,27.60
2017-12-15T19:41:16.708Z,28.23
2017-12-15T19:43:44.277Z,30.37
2017-12-15T19:46:11.824Z,29.97
2017-12-15T19:48:39.389Z,28.07
2017-12-15T19:51:07.737Z,26.63
2017-12-15T19:53:35.298Z,28.53
2017-12-15T19:56:02.875Z,27.57
2017-12-15T19:58:30.429Z,29.27
2017-12-15T20:00:58.762Z,29.30
2017-12-15T20:03:26.333Z,30.93
2017-12-15T20:05:53.893Z,30.23
2017-12-15T20:08:21.432Z,28.13
2017-12-15T20:10:49.000Z,31.53
2017-12-15T20:13:16.545Z,29.40
2017-12-15T20:15:44.110Z,27.23
2017-12-15T20:18:11.657Z,28.30
2017-12-15T20:20:39.226Z,29.37
2017-12-15T20:23:06.768Z,30.30
2017-12-15T20:25:34.332Z,33.80
2017-12-15T20:28:01.880Z,33.43
2017-12-15T20:30:29.451Z,32.57
2017-12-15T20:32:57.009Z,31.67
2017-12-15T20:35:24.586Z,30.80
2017-12-15T20:37:52.133Z,31.40
2017-12-15T20:40:19.684Z,28.80
2017-12-15T20:42:48.068Z,32.40
2017-12-15T20:45:16.424Z,32.47
2017-12-15T20:47:46.382Z,31.23
2017-12-15T20:50:14.106Z,30.90
2017-12-15T20:52:41.678Z,32.67
2017-12-15T20:55:10.758Z,33.63
2017-12-15T20:57:39.201Z,30.37
2017-12-15T21:00:06.751Z,34.07
2017-12-15T21:02:34.330Z,33.03
2017-12-15T21:05:03.672Z,33.30
2017-12-15T21:07:31.457Z,31.00
2017-12-15T21:09:59.914Z,32.00
2017-12-15T21:12:27.666Z,32.13
2017-12-15T21:14:55.304Z,32.40
2017-12-15T21:17:22.902Z,34.30
2017-12-15T21:19:50.456Z,33.90
2017-12-15T21:22:18.872Z,32.90
2017-12-15T21:24:47.259Z,33.37
2017-12-15T21:27:14.946Z,32.27
2017-12-15T21:29:43.268Z,31.93
2017-12-15T21:32:11.583Z,34.87
2017-12-15T21:34:39.153Z,32.63
2017-12-15T21:37:06.716Z,35.23
2017-12-15T21:39:34.285Z,34.40
2017-12-15T21:42:01.829Z,36.57
2017-12-15T21:44:29.389Z,37.70
2017-12-15T21:46:56.933Z,37.63
2017-12-15T21:49:24.504Z,34.97
2017-12-15T21:51:52.049Z,36.07
2017-12-15T21:54:19.691Z,34.20
2017-12-15T21:56:47.221Z,34.40
2017-12-15T21:59:14.809Z,35.73
2017-12-15T22:01:42.387Z,35.17
2017-12-15T22:04:09.930Z,33.83
2017-12-15T22:06:37.550Z,34.20
2017-12-15T22:09:05.098Z,34.80
2017-12-15T22:11:32.668Z,34.77
2017-12-15T22:14:00.217Z,34.97
2017-12-15T22:16:27.785Z,35.17
2017-12-15T22:18:55.335Z,36.80
2017-12-15T22:21:22.908Z,34.80
2017-12-15T22:23:50.462Z,36.37
2017-12-15T22:26:18.041Z,33.97
2017-12-15T22:28:45.592Z,35.87
2017-12-15T22:31:13.928Z,38.63
2017-12-15T22:33:41.472Z,37.00
2017-12-15T22:36:09.037Z,38.53
2017-12-15T22:38:36.589Z,37.70
2017-12-15T22:41:04.164Z,34.87
2017-12-15T22:43:31.723Z,37.67
2017-12-15T22:45:59.270Z,37.17
2017-12-15T22:48:26.841Z,36.37
2017-12-15T22:50:54.384Z,35.80
2017-12-15T22:53:21.960Z,33.90
2017-12-15T22:55:50.273Z,36.30
2017-12-15T22:58:17.977Z,35.20
2017-12-15T23:00:45.535Z,33.10
2017-12-15T23:03:13.919Z,35.50
2017-12-15T23:05:42.232Z,35.00
2017-12-15T23:08:10.570Z,31.93
2017-12-15T23:10:38.120Z,32.30
2017-12-15T23:13:06.455Z,36.50
2017-12-15T23:15:34.033Z,34.03
2017-12-15T23:18:01.613Z,33.53
2017-12-15T23:20:29.158Z,33.60
2017-12-15T23:22:56.833Z,34.60
2017-12-15T23:25:24.381Z,36.20
2017-12-15T23:27:51.961Z,36.17
2017-12-15T23:30:19.509Z,35.53
2017-12-15T23:32:47.831Z,34.73
2017-12-15T23:35:15.410Z,34.50
2017-12-15T23:37:43.742Z,31.90
2017-12-15T23:40:11.318Z,32.20
2017-12-15T23:42:38.869Z,32.00
2017-12-15T23:45:07.205Z,35.77
2017-12-15T23:47:34.744Z,31.50
2017-12-15T23:50:03.166Z,33.50
2017-12-15T23:52:31.480Z,34.83
2017-12-15T23:55:10.800Z,34.27
2017-12-15T23:57:38.354Z,33.70
